Time;durP1;ratioP1;P1;durP2;ratioP2;P2;SDS_P1;SDS_P2;PMS_P1;PMS_P2;Temp;Humidity;BMP_temperature;BMP_pressure;BME280_temperature;BME280_humidity;BME280_pressure;Samples;Min_cycle;Max_cycle;Signal;HPM_P1;HPM_P2
2023/03/20 00:01:53;;;;;;;2.05;1.95;;;;;;;;;;5060709;28;20233;-84
2023/03/20 00:04:21;;;;;;;1.90;1.80;;;;;;;;;;5060680;28;20244;-84
2023/03/20 00:06:49;;;;;;;1.45;1.35;;;;;;;;;;5060631;28;20222;-84
2023/03/20 00:09:16;;;;;;;1.38;1.30;;;;;;;;;;5060135;28;20232;-84
2023/03/20 00:11:48;;;;;;;1.35;1.35;;;;;;;;;;5060043;28;20237;-83
2023/03/20 00:14:19;;;;;;;1.60;1.50;;;;;;;;;;5061577;28;20284;-83
2023/03/20 00:16:48;;;;;;;2.97;2.78;;;;;;;;;;5060609;28;20232;-84
2023/03/20 00:19:22;;;;;;;2.80;2.60;;;;;;;;;;5060088;28;20258;-84
2023/03/20 00:21:50;;;;;;;2.55;2.35;;;;;;;;;;5061094;28;20712;-84
2023/03/20 00:24:17;;;;;;;2.95;2.53;;;;;;;;;;5059922;28;20228;-85
2023/03/20 00:26:46;;;;;;;3.10;2.75;;;;;;;;;;5060878;28;20289;-83
2023/03/20 00:29:20;;;;;;;3.55;3.25;;;;;;;;;;5060562;28;20237;-84
2023/03/20 00:31:48;;;;;;;2.90;2.70;;;;;;;;;;5060484;28;20224;-84
2023/03/20 00:34:19;;;;;;;2.53;2.33;;;;;;;;;;5060807;28;20292;-84
2023/03/20 00:36:47;;;;;;;2.20;2.10;;;;;;;;;;5061438;28;20225;-84
2023/03/20 00:39:15;;;;;;;2.90;2.70;;;;;;;;;;5059872;28;20297;-82
2023/03/20 00:41:44;;;;;;;3.60;3.30;;;;;;;;;;5060945;28;20233;-85
2023/03/20 00:44:21;;;;;;;2.60;2.40;;;;;;;;;;5060296;28;20202;-83
2023/03/20 00:46:50;;;;;;;2.72;2.53;;;;;;;;;;5059945;28;20232;-84
2023/03/20 00:49:21;;;;;;;2.58;2.38;;;;;;;;;;5059587;28;20269;-84
2023/03/20 00:51:48;;;;;;;2.92;2.72;;;;;;;;;;5059552;28;20226;-85
2023/03/20 00:54:18;;;;;;;2.90;2.63;;;;;;;;;;5059156;28;20567;-85
2023/03/20 00:56:48;;;;;;;3.33;3.13;;;;;;;;;;5059775;28;20316;-84
2023/03/20 00:59:19;;;;;;;3.67;2.97;;;;;;;;;;5059088;28;20305;-84
2023/03/20 01:01:46;;;;;;;3.03;2.75;;;;;;;;;;5058119;28;20289;-84
2023/03/20 01:04:16;;;;;;;4.72;3.10;;;;;;;;;;5059571;28;20292;-83
2023/03/20 01:06:45;;;;;;;3.90;3.60;;;;;;;;;;5059410;28;20221;-83
2023/03/20 01:09:13;;;;;;;3.72;3.38;;;;;;;;;;5058894;28;20208;-82
2023/03/20 01:11:41;;;;;;;4.07;3.75;;;;;;;;;;5058941;28;20268;-84
2023/03/20 01:14:14;;;;;;;3.65;3.35;;;;;;;;;;5058365;28;20280;-84
2023/03/20 01:16:43;;;;;;;3.92;3.63;;;;;;;;;;5058289;28;20717;-84
2023/03/20 01:19:13;;;;;;;4.50;4.10;;;;;;;;;;5058145;28;20754;-84
2023/03/20 01:21:40;;;;;;;5.07;4.63;;;;;;;;;;5058865;28;20230;-84
2023/03/20 01:24:09;;;;;;;4.55;4.15;;;;;;;;;;5058416;28;20634;-84
2023/03/20 01:26:39;;;;;;;5.10;4.20;;;;;;;;;;5059699;28;20292;-85
2023/03/20 01:29:19;;;;;;;5.97;5.38;;;;;;;;;;5059024;28;20554;-84
2023/03/20 01:31:47;;;;;;;5.25;4.72;;;;;;;;;;5059373;28;20236;-84
2023/03/20 01:34:15;;;;;;;6.07;5.53;;;;;;;;;;5059685;28;20637;-84
2023/03/20 01:36:46;;;;;;;5.28;4.88;;;;;;;;;;5059488;28;20225;-85
2023/03/20 01:39:14;;;;;;;5.05;4.60;;;;;;;;;;5059589;28;20288;-84
2023/03/20 01:41:42;;;;;;;6.00;5.43;;;;;;;;;;5058859;28;20201;-84
2023/03/20 01:44:21;;;;;;;6.68;5.97;;;;;;;;;;5059284;28;20237;-85
2023/03/20 01:46:49;;;;;;;5.55;4.85;;;;;;;;;;5082092;22;20229;-80
2023/03/20 01:50:12;;;;;;;4.57;3.88;;;;;;;;;;5045324;28;20218;-79
2023/03/20 01:52:40;;;;;;;5.50;5.00;;;;;;;;;;5044394;28;20236;-77
2023/03/20 01:55:09;;;;;;;8.40;7.40;;;;;;;;;;5052179;28;20745;-78
2023/03/20 01:57:37;;;;;;;9.98;8.07;;;;;;;;;;5052124;28;20230;-79
2023/03/20 02:00:08;;;;;;;8.00;7.20;;;;;;;;;;5052600;28;20240;-80
2023/03/20 02:02:35;;;;;;;9.25;8.35;;;;;;;;;;5074827;22;20234;-80
2023/03/20 02:05:07;;;;;;;9.77;8.13;;;;;;;;;;5054788;28;20741;-80
2023/03/20 02:07:36;;;;;;;8.88;7.97;;;;;;;;;;5054290;28;20224;-79
2023/03/20 02:10:05;;;;;;;10.88;9.35;;;;;;;;;;5054050;28;20243;-80
2023/03/20 02:12:34;;;;;;;11.30;9.55;;;;;;;;;;5054056;28;20221;-79
2023/03/20 02:15:02;;;;;;;9.18;8.27;;;;;;;;;;5054214;28;20291;-79
2023/03/20 02:17:29;;;;;;;10.90;9.18;;;;;;;;;;5039255;28;20221;-79
2023/03/20 02:20:07;;;;;;;12.25;10.65;;;;;;;;;;5033421;28;20237;-78
2023/03/20 02:22:58;;;;;;;10.80;9.55;;;;;;;;;;5025814;28;20312;-79
2023/03/20 02:26:16;;;;;;;12.00;9.63;;;;;;;;;;5033800;28;20202;-80
2023/03/20 02:29:44;;;;;;;12.90;10.38;;;;;;;;;;5014760;28;20200;-81
2023/03/20 02:33:06;;;;;;;10.07;8.48;;;;;;;;;;5033633;28;20226;-79
2023/03/20 02:35:53;;;;;;;14.75;9.82;;;;;;;;;;5031334;28;20206;-78
2023/03/20 02:38:56;;;;;;;12.70;10.07;;;;;;;;;;5033634;28;20229;-80
2023/03/20 02:41:28;;;;;;;11.38;9.63;;;;;;;;;;5033905;28;20309;-80
2023/03/20 02:44:04;;;;;;;11.80;9.15;;;;;;;;;;5033766;28;20624;-80
2023/03/20 02:46:39;;;;;;;12.55;9.45;;;;;;;;;;5033961;28;20208;-79
2023/03/20 02:49:14;;;;;;;11.85;9.38;;;;;;;;;;5033006;28;20670;-79
2023/03/20 02:51:47;;;;;;;11.77;9.32;;;;;;;;;;5033542;28;20256;-78
2023/03/20 02:54:26;;;;;;;12.00;10.23;;;;;;;;;;5033654;28;20597;-79
2023/03/20 02:57:01;;;;;;;11.77;9.20;;;;;;;;;;5034134;28;20206;-79
2023/03/20 02:59:34;;;;;;;11.98;8.73;;;;;;;;;;5032838;28;20222;-79
2023/03/20 03:02:07;;;;;;;12.90;8.65;;;;;;;;;;5033441;28;20313;-79
2023/03/20 03:04:38;;;;;;;14.50;10.27;;;;;;;;;;5036968;28;20202;-80
2023/03/20 03:07:08;;;;;;;14.93;8.70;;;;;;;;;;5036649;28;20202;-79
2023/03/20 03:09:40;;;;;;;10.88;9.55;;;;;;;;;;5037273;28;20294;-79
2023/03/20 03:12:12;;;;;;;12.32;9.45;;;;;;;;;;5038066;28;20781;-79
2023/03/20 03:14:43;;;;;;;13.70;9.77;;;;;;;;;;5037906;28;20262;-79
2023/03/20 03:17:11;;;;;;;13.57;9.57;;;;;;;;;;5037200;28;20583;-78
2023/03/20 03:19:42;;;;;;;13.15;9.93;;;;;;;;;;5036770;28;20612;-80
2023/03/20 03:22:11;;;;;;;16.00;11.68;;;;;;;;;;5037409;28;20222;-80
2023/03/20 03:24:44;;;;;;;15.70;10.77;;;;;;;;;;5036916;28;20686;-79
2023/03/20 03:27:18;;;;;;;19.40;12.00;;;;;;;;;;5036441;28;20365;-79
2023/03/20 03:29:52;;;;;;;11.52;10.07;;;;;;;;;;5036509;28;20277;-79
2023/03/20 03:32:26;;;;;;;15.07;12.02;;;;;;;;;;5037110;28;20245;-80
2023/03/20 03:34:54;;;;;;;16.05;11.15;;;;;;;;;;5036812;28;20213;-81
2023/03/20 03:37:45;;;;;;;16.05;12.30;;;;;;;;;;5036490;28;20293;-79
2023/03/20 03:40:21;;;;;;;14.30;10.68;;;;;;;;;;5036085;28;20225;-79
2023/03/20 03:42:56;;;;;;;16.05;11.95;;;;;;;;;;5036589;28;20202;-79
2023/03/20 03:45:31;;;;;;;24.75;11.88;;;;;;;;;;5036223;28;20260;-79
2023/03/20 03:48:03;;;;;;;19.30;14.05;;;;;;;;;;5036171;28;20289;-81
2023/03/20 03:50:34;;;;;;;18.25;12.98;;;;;;;;;;5036117;28;20211;-80
2023/03/20 03:53:04;;;;;;;17.27;13.00;;;;;;;;;;5036512;28;20230;-80
2023/03/20 03:55:37;;;;;;;17.10;13.18;;;;;;;;;;5036007;28;20292;-79
2023/03/20 03:58:08;;;;;;;16.08;11.32;;;;;;;;;;5036046;28;20753;-80
2023/03/20 04:00:36;;;;;;;19.88;12.93;;;;;;;;;;5035808;28;20240;-80
2023/03/20 04:03:06;;;;;;;18.23;13.50;;;;;;;;;;5035683;28;20285;-79
2023/03/20 04:05:35;;;;;;;19.00;13.18;;;;;;;;;;5035321;28;20206;-79
2023/03/20 04:08:05;;;;;;;17.08;12.95;;;;;;;;;;5035741;28;20206;-80
2023/03/20 04:10:34;;;;;;;19.38;13.25;;;;;;;;;;5035299;28;20289;-79
2023/03/20 04:13:01;;;;;;;18.45;13.35;;;;;;;;;;5036653;28;20202;-78
2023/03/20 04:15:29;;;;;;;19.67;12.60;;;;;;;;;;5035066;28;20289;-79
2023/03/20 04:17:56;;;;;;;18.83;12.52;;;;;;;;;;5035906;28;20693;-80
2023/03/20 04:20:24;;;;;;;17.17;14.30;;;;;;;;;;5035345;28;20230;-80
2023/03/20 04:22:51;;;;;;;18.83;12.68;;;;;;;;;;5035740;28;20206;-78
2023/03/20 04:25:22;;;;;;;16.20;12.27;;;;;;;;;;5035555;28;20202;-79
2023/03/20 04:27:51;;;;;;;18.70;13.68;;;;;;;;;;5036281;28;20198;-78
2023/03/20 04:30:19;;;;;;;15.82;10.88;;;;;;;;;;5035098;28;20202;-80
2023/03/20 04:32:46;;;;;;;18.20;11.85;;;;;;;;;;5035823;28;20291;-79
2023/03/20 04:35:14;;;;;;;16.30;11.75;;;;;;;;;;5036283;28;20213;-80
2023/03/20 04:37:41;;;;;;;20.00;12.93;;;;;;;;;;5036578;28;20294;-81
2023/03/20 04:40:10;;;;;;;14.07;11.27;;;;;;;;;;5034389;28;20233;-79
2023/03/20 04:42:37;;;;;;;16.10;12.52;;;;;;;;;;5035693;28;20221;-80
2023/03/20 04:45:09;;;;;;;20.17;14.23;;;;;;;;;;5035222;28;20209;-81
2023/03/20 04:47:36;;;;;;;16.90;13.57;;;;;;;;;;5035191;28;20210;-79
2023/03/20 04:50:04;;;;;;;16.52;12.73;;;;;;;;;;5034016;28;20198;-81
2023/03/20 04:52:32;;;;;;;16.60;12.05;;;;;;;;;;5034804;28;20297;-81
2023/03/20 04:54:59;;;;;;;17.00;11.52;;;;;;;;;;5034686;28;20206;-79
2023/03/20 04:57:27;;;;;;;16.30;13.23;;;;;;;;;;5035050;28;20581;-80
2023/03/20 04:59:55;;;;;;;18.48;12.88;;;;;;;;;;5034013;28;20226;-80
2023/03/20 05:02:23;;;;;;;14.63;11.38;;;;;;;;;;5034209;28;20277;-80
2023/03/20 05:04:51;;;;;;;14.65;9.85;;;;;;;;;;5034191;28;20666;-79
2023/03/20 05:07:18;;;;;;;11.55;9.25;;;;;;;;;;5033931;28;20289;-79
2023/03/20 05:09:46;;;;;;;16.25;11.23;;;;;;;;;;5033934;28;20289;-80
2023/03/20 05:12:13;;;;;;;13.43;10.13;;;;;;;;;;5034476;28;20286;-78
2023/03/20 05:14:41;;;;;;;12.82;10.48;;;;;;;;;;5034390;28;20617;-79
2023/03/20 05:17:08;;;;;;;11.80;8.80;;;;;;;;;;5034405;28;20213;-80
2023/03/20 05:19:38;;;;;;;10.57;8.30;;;;;;;;;;5034352;28;20250;-79
2023/03/20 05:22:06;;;;;;;11.50;7.90;;;;;;;;;;5034093;28;20218;-79
2023/03/20 05:24:33;;;;;;;8.80;7.88;;;;;;;;;;5034110;28;20677;-80
2023/03/20 05:27:01;;;;;;;7.80;6.90;;;;;;;;;;5033922;28;20206;-78
2023/03/20 05:29:28;;;;;;;9.30;8.25;;;;;;;;;;5033812;28;20210;-79
2023/03/20 05:31:55;;;;;;;12.77;9.20;;;;;;;;;;5033424;28;20222;-79
2023/03/20 05:34:23;;;;;;;10.13;7.60;;;;;;;;;;5033545;28;20230;-78
2023/03/20 05:36:52;;;;;;;11.30;9.38;;;;;;;;;;5033692;28;20198;-79
2023/03/20 05:39:20;;;;;;;9.82;7.63;;;;;;;;;;5033633;28;20428;-78
2023/03/20 05:41:48;;;;;;;8.07;6.75;;;;;;;;;;5033780;28;20714;-83
2023/03/20 05:44:16;;;;;;;8.75;5.93;;;;;;;;;;5033847;28;20209;-82
2023/03/20 05:46:43;;;;;;;10.32;8.65;;;;;;;;;;5034009;28;20588;-82
2023/03/20 05:49:11;;;;;;;10.50;8.57;;;;;;;;;;5032925;28;20297;-81
2023/03/20 05:51:38;;;;;;;15.13;9.52;;;;;;;;;;5033764;28;20240;-82
2023/03/20 05:54:07;;;;;;;8.88;7.15;;;;;;;;;;5033701;28;20206;-82
2023/03/20 05:56:35;;;;;;;6.30;5.70;;;;;;;;;;5033844;28;20282;-82
2023/03/20 05:59:02;;;;;;;7.57;6.10;;;;;;;;;;5034447;28;20654;-83
2023/03/20 06:01:30;;;;;;;7.90;6.78;;;;;;;;;;5033339;28;20226;-82
2023/03/20 06:03:57;;;;;;;7.53;6.32;;;;;;;;;;5034058;28;20913;-81
2023/03/20 06:06:25;;;;;;;8.00;6.70;;;;;;;;;;5033287;28;20209;-83
2023/03/20 06:08:52;;;;;;;7.82;6.45;;;;;;;;;;5033046;28;20671;-84
2023/03/20 06:11:21;;;;;;;10.18;7.55;;;;;;;;;;5032376;28;20226;-82
2023/03/20 06:13:50;;;;;;;7.35;6.50;;;;;;;;;;5033331;28;20297;-81
2023/03/20 06:16:17;;;;;;;8.40;7.38;;;;;;;;;;5033994;28;20574;-83
2023/03/20 06:18:44;;;;;;;5.47;4.93;;;;;;;;;;5033368;28;20265;-85
2023/03/20 06:21:12;;;;;;;9.68;7.75;;;;;;;;;;5033481;28;20261;-83
2023/03/20 06:23:40;;;;;;;8.60;6.60;;;;;;;;;;5033655;28;20203;-83
2023/03/20 06:26:07;;;;;;;8.77;6.90;;;;;;;;;;5034145;28;20649;-84
2023/03/20 06:28:36;;;;;;;7.30;6.45;;;;;;;;;;5033443;28;20230;-83
2023/03/20 06:31:04;;;;;;;11.85;8.23;;;;;;;;;;5033425;28;20222;-84
2023/03/20 06:33:31;;;;;;;11.13;8.13;;;;;;;;;;5033724;28;20198;-83
2023/03/20 06:35:59;;;;;;;9.27;8.35;;;;;;;;;;5032800;28;20290;-83
2023/03/20 06:38:26;;;;;;;11.18;8.25;;;;;;;;;;5035139;28;20289;-85
2023/03/20 06:40:54;;;;;;;12.07;9.60;;;;;;;;;;5036706;28;20280;-84
2023/03/20 06:43:21;;;;;;;8.95;8.05;;;;;;;;;;5037733;28;20624;-85
2023/03/20 06:45:50;;;;;;;8.55;6.38;;;;;;;;;;5038042;28;20293;-85
2023/03/20 06:48:20;;;;;;;8.07;6.18;;;;;;;;;;5037058;28;20225;-83
2023/03/20 06:50:48;;;;;;;9.88;6.75;;;;;;;;;;5037379;28;20269;-83
2023/03/20 06:53:16;;;;;;;7.43;6.22;;;;;;;;;;5037586;28;20198;-83
2023/03/20 06:55:43;;;;;;;9.25;6.72;;;;;;;;;;5041638;28;20265;-83
2023/03/20 06:58:11;;;;;;;9.63;7.97;;;;;;;;;;5037846;28;20297;-84
2023/03/20 07:00:38;;;;;;;12.88;9.60;;;;;;;;;;5037919;28;20230;-83
2023/03/20 07:03:07;;;;;;;14.13;10.20;;;;;;;;;;5036885;28;20256;-83
2023/03/20 07:05:35;;;;;;;12.00;9.15;;;;;;;;;;5036998;28;20229;-83
2023/03/20 07:08:02;;;;;;;8.65;7.38;;;;;;;;;;5037049;28;20296;-83
2023/03/20 07:10:30;;;;;;;9.90;7.85;;;;;;;;;;5036005;28;20208;-83
2023/03/20 07:12:59;;;;;;;8.68;7.60;;;;;;;;;;5037501;28;20297;-83
2023/03/20 07:15:28;;;;;;;9.77;7.60;;;;;;;;;;5037167;28;20210;-83
2023/03/20 07:17:56;;;;;;;7.57;6.30;;;;;;;;;;5037205;28;20210;-83
2023/03/20 07:20:24;;;;;;;8.82;6.72;;;;;;;;;;5037287;28;20225;-83
2023/03/20 07:22:52;;;;;;;11.45;9.35;;;;;;;;;;5036746;28;20898;-83
2023/03/20 07:25:20;;;;;;;13.55;10.48;;;;;;;;;;5035883;28;20289;-83
2023/03/20 07:27:49;;;;;;;12.95;8.35;;;;;;;;;;5035920;28;20210;-84
2023/03/20 07:30:17;;;;;;;11.98;8.82;;;;;;;;;;5035348;28;20287;-84
2023/03/20 07:32:45;;;;;;;12.63;9.93;;;;;;;;;;5038905;28;20581;-85
2023/03/20 07:35:13;;;;;;;12.05;8.98;;;;;;;;;;5037279;28;20212;-83
2023/03/20 07:37:42;;;;;;;13.07;8.93;;;;;;;;;;5035687;28;20588;-83
2023/03/20 07:40:11;;;;;;;12.75;9.50;;;;;;;;;;5035169;28;20289;-83
2023/03/20 07:42:38;;;;;;;12.68;9.07;;;;;;;;;;5034912;28;20330;-81
2023/03/20 07:45:08;;;;;;;15.38;10.85;;;;;;;;;;5037408;28;20575;-83
2023/03/20 07:47:35;;;;;;;16.45;11.63;;;;;;;;;;5035954;28;20248;-83
2023/03/20 07:50:06;;;;;;;12.93;10.15;;;;;;;;;;5033249;28;20261;-83
2023/03/20 07:52:33;;;;;;;18.20;14.52;;;;;;;;;;5034889;28;20230;-83
2023/03/20 07:55:02;;;;;;;19.90;15.45;;;;;;;;;;5035068;28;20298;-85
2023/03/20 07:57:30;;;;;;;23.58;18.05;;;;;;;;;;5034444;28;20238;-84
2023/03/20 07:59:57;;;;;;;20.15;16.50;;;;;;;;;;5034844;28;20674;-85
2023/03/20 08:02:25;;;;;;;23.77;16.70;;;;;;;;;;5082058;22;20228;-84
2023/03/20 08:04:52;;;;;;;20.05;15.68;;;;;;;;;;5072667;28;20205;-84
2023/03/20 08:07:20;;;;;;;20.33;14.38;;;;;;;;;;5074675;28;20728;-84
2023/03/20 08:09:47;;;;;;;20.63;15.65;;;;;;;;;;5079678;28;20684;-84
2023/03/20 08:12:16;;;;;;;21.70;17.40;;;;;;;;;;5080314;28;20224;-83
2023/03/20 08:14:44;;;;;;;24.27;18.20;;;;;;;;;;5076307;28;20186;-84
2023/03/20 08:17:11;;;;;;;22.63;15.65;;;;;;;;;;5052395;28;20221;-85
2023/03/20 08:19:39;;;;;;;24.15;18.65;;;;;;;;;;5060315;28;20229;-84
2023/03/20 08:22:06;;;;;;;21.77;15.93;;;;;;;;;;5059879;28;20260;-84
2023/03/20 08:24:34;;;;;;;20.65;16.73;;;;;;;;;;5059578;28;20654;-85
2023/03/20 08:27:01;;;;;;;20.85;15.50;;;;;;;;;;5060226;28;20205;-83
2023/03/20 08:29:30;;;;;;;15.80;13.27;;;;;;;;;;5059500;28;20228;-83
2023/03/20 08:31:58;;;;;;;18.17;13.07;;;;;;;;;;5059011;28;20233;-84
2023/03/20 08:34:25;;;;;;;18.08;13.27;;;;;;;;;;5059502;28;20206;-83
2023/03/20 08:36:53;;;;;;;12.45;10.05;;;;;;;;;;5059453;28;20684;-84
2023/03/20 08:39:20;;;;;;;13.68;10.07;;;;;;;;;;5059016;28;20222;-84
2023/03/20 08:41:48;;;;;;;13.40;10.57;;;;;;;;;;5059337;28;20690;-84
2023/03/20 08:44:15;;;;;;;21.52;15.30;;;;;;;;;;5058909;28;20228;-85
2023/03/20 08:46:45;;;;;;;15.73;12.45;;;;;;;;;;5057396;28;20301;-84
2023/03/20 08:49:13;;;;;;;11.90;10.65;;;;;;;;;;5052961;28;20230;-84
2023/03/20 08:51:41;;;;;;;14.15;10.73;;;;;;;;;;5037133;28;20201;-84
2023/03/20 08:54:09;;;;;;;15.43;11.60;;;;;;;;;;5037509;28;20204;-85
2023/03/20 08:56:36;;;;;;;15.07;11.50;;;;;;;;;;5037948;28;20620;-85
2023/03/20 08:59:04;;;;;;;13.57;9.93;;;;;;;;;;5036715;28;20714;-85
2023/03/20 09:01:32;;;;;;;30.55;14.38;;;;;;;;;;5037440;28;20226;-84
2023/03/20 09:04:01;;;;;;;18.73;11.93;;;;;;;;;;5037508;28;20297;-85
2023/03/20 09:06:28;;;;;;;17.20;11.40;;;;;;;;;;5037129;28;20237;-85
2023/03/20 09:08:56;;;;;;;16.88;12.55;;;;;;;;;;5038950;28;20586;-85
2023/03/20 09:11:24;;;;;;;11.95;9.98;;;;;;;;;;5037669;28;20621;-85
2023/03/20 09:13:51;;;;;;;16.70;13.10;;;;;;;;;;5037284;28;20222;-85
2023/03/20 09:16:19;;;;;;;17.55;12.45;;;;;;;;;;5037181;28;20233;-84
2023/03/20 09:18:46;;;;;;;13.20;10.10;;;;;;;;;;5036743;28;20222;-85
2023/03/20 09:21:16;;;;;;;11.30;9.60;;;;;;;;;;5036001;28;20245;-91
2023/03/20 09:23:43;;;;;;;11.63;8.35;;;;;;;;;;5033885;28;20262;-84
2023/03/20 09:26:11;;;;;;;11.98;8.77;;;;;;;;;;5034278;28;20729;-86
2023/03/20 09:28:38;;;;;;;13.48;9.60;;;;;;;;;;5033661;28;20302;-84
2023/03/20 09:31:06;;;;;;;10.88;8.75;;;;;;;;;;5033808;28;20237;-85
2023/03/20 09:33:34;;;;;;;12.63;10.05;;;;;;;;;;5033510;28;20766;-86
2023/03/20 09:36:01;;;;;;;11.85;7.72;;;;;;;;;;5032186;28;20202;-84
2023/03/20 09:38:30;;;;;;;14.23;9.45;;;;;;;;;;5035483;28;20254;-84
2023/03/20 09:41:00;;;;;;;13.43;10.48;;;;;;;;;;5040522;28;20266;-84
2023/03/20 09:43:42;;;;;;;11.30;8.75;;;;;;;;;;5039796;28;20209;-84
2023/03/20 09:46:24;;;;;;;15.75;11.63;;;;;;;;;;5039614;28;20246;-84
2023/03/20 09:48:58;;;;;;;9.02;7.72;;;;;;;;;;5038564;28;20218;-85
2023/03/20 09:51:34;;;;;;;9.93;7.88;;;;;;;;;;5058516;28;20216;-84
2023/03/20 09:54:06;;;;;;;7.63;6.82;;;;;;;;;;5059548;28;20217;-85
2023/03/20 09:56:34;;;;;;;6.78;6.05;;;;;;;;;;5056318;28;20270;-84
2023/03/20 09:59:04;;;;;;;12.35;10.50;;;;;;;;;;5055690;28;20682;-84
2023/03/20 10:01:45;;;;;;;15.88;11.35;;;;;;;;;;5056766;28;20620;-84
2023/03/20 10:04:14;;;;;;;22.73;15.32;;;;;;;;;;5058696;28;20617;-84
2023/03/20 10:06:42;;;;;;;28.55;19.58;;;;;;;;;;5057927;28;20206;-83
2023/03/20 10:09:18;;;;;;;21.95;16.33;;;;;;;;;;5058242;28;20286;-85
2023/03/20 10:12:07;;;;;;;23.80;16.73;;;;;;;;;;5057917;28;20205;-84
2023/03/20 10:14:44;;;;;;;23.50;18.00;;;;;;;;;;5056516;28;20225;-84
2023/03/20 10:17:30;;;;;;;22.42;15.23;;;;;;;;;;5058846;28;20193;-83
2023/03/20 10:20:01;;;;;;;22.50;17.05;;;;;;;;;;5058321;28;20190;-84
2023/03/20 10:22:34;;;;;;;23.38;15.85;;;;;;;;;;5058231;28;20205;-83
2023/03/20 10:25:14;;;;;;;21.35;15.15;;;;;;;;;;5058390;28;20198;-85
2023/03/20 10:27:46;;;;;;;16.42;13.65;;;;;;;;;;5059205;28;20224;-83
2023/03/20 10:30:33;;;;;;;17.20;12.45;;;;;;;;;;5058097;28;20249;-83
2023/03/20 10:33:12;;;;;;;16.13;11.80;;;;;;;;;;5059455;28;20273;-84
2023/03/20 10:35:45;;;;;;;14.75;12.05;;;;;;;;;;5058598;28;20681;-83
2023/03/20 10:38:26;;;;;;;16.50;12.00;;;;;;;;;;5058550;28;20763;-84
2023/03/20 10:40:57;;;;;;;12.73;10.60;;;;;;;;;;5059861;28;20277;-84
2023/03/20 10:43:29;;;;;;;10.50;8.85;;;;;;;;;;5059090;28;20570;-85
2023/03/20 10:46:01;;;;;;;10.45;9.38;;;;;;;;;;5058771;28;20274;-84
2023/03/20 10:48:34;;;;;;;12.20;8.35;;;;;;;;;;5058967;28;20228;-84
2023/03/20 10:51:03;;;;;;;9.52;8.45;;;;;;;;;;5057640;28;20202;-85
2023/03/20 10:53:41;;;;;;;10.00;8.48;;;;;;;;;;5057484;28;20205;-84
2023/03/20 10:56:14;;;;;;;8.60;6.60;;;;;;;;;;5061471;28;20188;-84
2023/03/20 10:58:45;;;;;;;8.05;6.95;;;;;;;;;;5057828;28;20217;-85
2023/03/20 11:01:12;;;;;;;9.07;7.15;;;;;;;;;;5062536;28;20312;-84
2023/03/20 11:03:40;;;;;;;7.88;7.07;;;;;;;;;;5077755;28;20224;-84
2023/03/20 11:06:17;;;;;;;7.07;6.38;;;;;;;;;;5077665;28;20221;-85
2023/03/20 11:08:50;;;;;;;9.23;7.80;;;;;;;;;;5077874;28;20221;-84
2023/03/20 11:11:26;;;;;;;8.70;7.80;;;;;;;;;;5078644;28;20190;-84
2023/03/20 11:13:55;;;;;;;8.00;7.18;;;;;;;;;;5077075;28;20280;-84
2023/03/20 11:16:25;;;;;;;9.27;7.57;;;;;;;;;;5074619;28;20197;-83
2023/03/20 11:18:54;;;;;;;8.85;7.38;;;;;;;;;;5076603;28;20654;-84
2023/03/20 11:21:25;;;;;;;7.15;6.45;;;;;;;;;;5078093;28;20211;-84
2023/03/20 11:23:53;;;;;;;5.60;5.10;;;;;;;;;;5078664;28;20235;-84
2023/03/20 11:26:34;;;;;;;4.55;4.15;;;;;;;;;;5080999;28;20288;-84
2023/03/20 11:29:01;;;;;;;8.30;6.05;;;;;;;;;;5082794;28;20232;-84
2023/03/20 11:31:34;;;;;;;6.55;5.88;;;;;;;;;;5082547;28;20260;-83
2023/03/20 11:34:18;;;;;;;6.43;5.72;;;;;;;;;;5082125;28;20219;-85
2023/03/20 11:36:53;;;;;;;5.75;5.05;;;;;;;;;;5082080;28;20276;-84
2023/03/20 11:39:25;;;;;;;5.78;5.18;;;;;;;;;;5078934;28;20311;-85
2023/03/20 11:41:57;;;;;;;6.05;5.43;;;;;;;;;;5079112;28;20185;-83
2023/03/20 11:44:27;;;;;;;6.82;6.15;;;;;;;;;;5078397;28;20320;-84
2023/03/20 11:47:00;;;;;;;6.07;5.20;;;;;;;;;;5079787;28;20264;-84
2023/03/20 11:49:28;;;;;;;5.28;4.78;;;;;;;;;;5073516;28;20214;-85
2023/03/20 11:51:59;;;;;;;5.18;4.68;;;;;;;;;;5058368;28;20285;-84
2023/03/20 11:54:27;;;;;;;5.50;4.93;;;;;;;;;;5057895;28;20185;-84
2023/03/20 11:56:58;;;;;;;5.22;4.65;;;;;;;;;;5057919;28;20220;-85
2023/03/20 11:59:31;;;;;;;5.75;5.03;;;;;;;;;;5057210;28;20269;-84
2023/03/20 12:01:59;;;;;;;5.00;4.50;;;;;;;;;;5058090;28;20209;-84
2023/03/20 12:04:31;;;;;;;5.40;4.90;;;;;;;;;;5056874;28;20221;-84
2023/03/20 12:07:03;;;;;;;4.60;4.13;;;;;;;;;;5057262;28;20217;-84
2023/03/20 12:09:38;;;;;;;6.18;4.63;;;;;;;;;;5057755;28;20186;-84
2023/03/20 12:12:15;;;;;;;3.67;3.38;;;;;;;;;;5057787;28;20185;-85
2023/03/20 12:14:51;;;;;;;4.32;3.88;;;;;;;;;;5057203;28;20543;-84
2023/03/20 12:17:35;;;;;;;5.20;4.70;;;;;;;;;;5056315;28;20190;-84
2023/03/20 12:20:11;;;;;;;3.65;3.35;;;;;;;;;;5055891;28;20189;-85
2023/03/20 12:22:47;;;;;;;5.78;5.25;;;;;;;;;;5056882;28;20236;-85
2023/03/20 12:25:22;;;;;;;5.30;4.78;;;;;;;;;;5055032;28;20300;-84
2023/03/20 12:27:58;;;;;;;4.25;3.85;;;;;;;;;;5057731;28;20221;-84
2023/03/20 12:30:32;;;;;;;4.30;3.90;;;;;;;;;;5055985;28;20253;-84
2023/03/20 12:33:05;;;;;;;3.50;3.20;;;;;;;;;;5049341;28;20218;-84
2023/03/20 12:35:36;;;;;;;3.65;3.30;;;;;;;;;;5050990;28;20190;-84
2023/03/20 12:38:21;;;;;;;3.60;3.28;;;;;;;;;;5055109;28;20308;-85
2023/03/20 12:40:53;;;;;;;4.22;3.83;;;;;;;;;;5054389;28;20237;-85
2023/03/20 12:43:27;;;;;;;4.43;4.03;;;;;;;;;;5050919;28;20185;-87
2023/03/20 12:45:59;;;;;;;4.70;4.30;;;;;;;;;;5047964;28;20205;-86
2023/03/20 12:48:48;;;;;;;4.95;4.38;;;;;;;;;;5040369;28;20678;-87
2023/03/20 12:51:23;;;;;;;4.20;3.80;;;;;;;;;;5046501;28;20754;-86
2023/03/20 12:54:02;;;;;;;5.25;4.78;;;;;;;;;;5053622;28;20280;-87
2023/03/20 12:56:59;;;;;;;4.90;4.13;;;;;;;;;;5049851;28;20305;-86
2023/03/20 12:59:38;;;;;;;4.35;3.95;;;;;;;;;;5047668;28;20721;-86
2023/03/20 13:02:19;;;;;;;3.70;3.40;;;;;;;;;;5039403;28;20210;-85
2023/03/20 13:04:56;;;;;;;4.15;3.75;;;;;;;;;;5047030;28;20246;-86
2023/03/20 13:07:32;;;;;;;4.07;3.67;;;;;;;;;;5047522;28;20268;-86
2023/03/20 13:10:20;;;;;;;4.35;3.95;;;;;;;;;;5044588;28;20209;-86
2023/03/20 13:13:00;;;;;;;4.47;4.07;;;;;;;;;;5052613;28;20201;-86
2023/03/20 13:15:49;;;;;;;3.58;3.28;;;;;;;;;;5043507;28;20552;-86
2023/03/20 13:18:24;;;;;;;3.22;2.85;;;;;;;;;;5048153;28;20223;-87
2023/03/20 13:20:54;;;;;;;3.22;2.90;;;;;;;;;;5049823;28;20228;-87
2023/03/20 13:23:26;;;;;;;4.43;4.03;;;;;;;;;;5042884;28;20667;-86
2023/03/20 13:26:12;;;;;;;5.30;4.40;;;;;;;;;;5040401;28;20243;-86
2023/03/20 13:28:46;;;;;;;3.33;3.03;;;;;;;;;;5032900;28;20254;-86
2023/03/20 13:31:34;;;;;;;3.88;3.30;;;;;;;;;;5050105;28;20201;-86
2023/03/20 13:34:13;;;;;;;3.15;2.70;;;;;;;;;;5060335;28;20197;-86
2023/03/20 13:36:59;;;;;;;3.35;3.03;;;;;;;;;;5040457;28;20550;-86
2023/03/20 13:39:31;;;;;;;2.42;2.22;;;;;;;;;;5040012;28;20194;-85
2023/03/20 13:42:00;;;;;;;3.65;3.00;;;;;;;;;;5046488;28;20206;-86
2023/03/20 13:44:30;;;;;;;3.60;2.38;;;;;;;;;;5033817;28;20210;-86
2023/03/20 13:47:02;;;;;;;2.83;2.53;;;;;;;;;;5051109;28;20288;-86
2023/03/20 13:49:36;;;;;;;2.63;2.42;;;;;;;;;;5047817;28;20194;-85
2023/03/20 13:52:08;;;;;;;2.70;2.22;;;;;;;;;;5069257;22;20231;-83
2023/03/20 13:54:52;;;;;;;2.95;2.42;;;;;;;;;;5050140;28;20281;-83
2023/03/20 13:57:37;;;;;;;2.35;2.15;;;;;;;;;;5046240;28;20229;-82
2023/03/20 14:00:24;;;;;;;2.25;2.05;;;;;;;;;;5053168;28;20196;-82
2023/03/20 14:03:15;;;;;;;7.50;2.40;;;;;;;;;;5046544;28;20202;-83
2023/03/20 14:05:44;;;;;;;2.10;1.75;;;;;;;;;;5045163;28;20232;-84
2023/03/20 14:08:35;;;;;;;3.10;1.80;;;;;;;;;;5041815;28;20218;-83
2023/03/20 14:11:31;;;;;;;2.95;2.35;;;;;;;;;;5049306;28;20205;-83
2023/03/20 14:14:07;;;;;;;2.42;2.10;;;;;;;;;;5041863;28;20264;-83
2023/03/20 14:16:35;;;;;;;3.42;3.13;;;;;;;;;;5053413;28;20197;-82
2023/03/20 14:19:14;;;;;;;2.55;2.35;;;;;;;;;;5047407;28;20331;-83
2023/03/20 14:21:46;;;;;;;2.08;1.88;;;;;;;;;;5044369;28;20569;-83
2023/03/20 14:24:18;;;;;;;2.08;1.95;;;;;;;;;;5040462;28;20205;-83
2023/03/20 14:26:49;;;;;;;2.25;2.05;;;;;;;;;;5036047;28;20229;-83
2023/03/20 14:29:38;;;;;;;5.05;2.22;;;;;;;;;;5038477;28;20210;-82
2023/03/20 14:32:30;;;;;;;2.40;1.63;;;;;;;;;;5043144;28;20244;-81
2023/03/20 14:35:17;;;;;;;1.60;1.50;;;;;;;;;;5043590;28;20630;-83
2023/03/20 14:38:15;;;;;;;1.73;1.63;;;;;;;;;;5043099;28;20224;-82
2023/03/20 14:40:55;;;;;;;1.65;1.55;;;;;;;;;;5050358;28;20250;-80
2023/03/20 14:43:40;;;;;;;2.10;1.95;;;;;;;;;;5045714;28;20202;-85
2023/03/20 14:46:18;;;;;;;1.95;1.70;;;;;;;;;;5053719;28;20222;-81
2023/03/20 14:48:50;;;;;;;1.70;1.60;;;;;;;;;;5042303;28;20194;-83
2023/03/20 14:51:31;;;;;;;1.95;1.85;;;;;;;;;;5038360;28;20193;-81
2023/03/20 14:54:27;;;;;;;1.70;1.60;;;;;;;;;;5041276;28;20625;-82
2023/03/20 14:56:55;;;;;;;2.45;1.55;;;;;;;;;;5032718;28;20240;-81
2023/03/20 14:59:23;;;;;;;1.52;1.30;;;;;;;;;;5034095;28;20209;-82
2023/03/20 15:01:58;;;;;;;0.90;0.90;;;;;;;;;;5049303;28;20274;-83
2023/03/20 15:04:34;;;;;;;1.60;1.48;;;;;;;;;;5049092;28;20189;-81